首页
METAR-TAF:

METAR-TAF

机场 :

Hunter Army Airfield / Fort Stewart

薩凡納, 喬治亞, 美国

纬度: 32-01N, 经度: 081-09W, 海拔: 13米

当前天气观测

该预报发布于43分钟前的10:56 UTC
风速6节,风向北转东北
温度 20°C
湿度 73%
气压 1020 hPa
能見度: 16.1公里
天空无云

METAR: KSVN 191056Z AUTO 02006KT 10SM CLR 20/15 A3011 RMK AO2 SLP199 T01950151 $

时间: 07:39 (11:39 UTC)

预报

该预报发布于7小时和39分钟前的04:00 UTC
预报有效从19日的 04点(UTC)到 20日的 10点(UTC)
风速9节,风向东转东北
能见度10公里或以上
多云层高于3000英尺
多云层高于15000英尺
成为
从 19日的 13点(UTC)到 19日的 14点(UTC)
风速12节,风向东北,有时为18节阵风
能见度10公里或以上
散云层高于5000英尺
散云层高于10000英尺
成为
从 19日的 23点(UTC)到 19日的 24点(UTC)
风速12节,风向东转东北
能见度10公里或以上
多云层高于3000英尺
多云层高于20000英尺

TAF: KSVN 190400Z 1904/2010 06009KT 9999 BKN030 BKN150 QNH3007INS BECMG 1913/1914 04012G18KT 9999 SCT050 SCT100 QNH3014INS BECMG 1923/1924 06012KT 9999 BKN030 BKN200 QNH3013INS TX27/1918Z TN20/1910Z

超过4000个机场的气象观测和天气预报(METAR&TAF报告)。

可查询的气象台以黄色和红色小点在地图上表示。

将鼠标移到小点上方,可查看气象台名称。

然后点击查看天气观测和预报。

如需切换地图:点击带黑十字的绿色按钮放大地图;点击带横线的绿色按钮缩小地图;或者点击绿色箭头查看邻近地区的地图。


METAR-TAF: